»·PEaware :: DCM424 KSAN-KLGF

DCM424 :: KSAN-KLGF

FLIGHT INFORMATION

Flight Status: Arrived
Operator: DotCom
More flights by this operator :: More flights under this callsign
Pilot: Ben H. (9170)
Aircraft: BEECH AIRCRAFT SUPER KING AIR COMMUTER
(BE20)
More flights by this aircraft type
Origin: KSAN San Diego Intl-Lindbergh
United States
Destination: KLGF Laguna AAF
United States
More flights between these airports :: More routes between these airports
Route: BRDR7 IPL
File this flight plan on PilotEdge
Remarks:
Altitude:
(Current/Filed)
21,000ft
Speed:
(Current/Filed)
250kts
Departed: 04-May-19 08:34 PM
Arrived: 04-May-19 09:18 PM
Distance/Time
Traveled:
141nm/0:44
Distance/Time
To Go:
Arrived

Flight Plot

Page will automatically refresh every two minutes.

Flight plan parsing failed; only flown route is shown


Map Options




Map Legend


Flown Route
Filed Route
Departure Airport
Arrival Airport
Navaid (VOR, NDB)
Fix

Horizontal Profiles

Position Reports

Time Latitude Longitude Heading Altitude Ground
Speed
04-May-19 20:26 32.732201 -117.177455 101 21ft 0kts
04-May-19 20:27 32.732201 -117.177455 101 21ft 0kts
04-May-19 20:28 32.732201 -117.177455 101 21ft 0kts
04-May-19 20:29 32.732057 -117.177304 171 21ft 6kts
04-May-19 20:30 32.731218 -117.176625 185 21ft 0kts
04-May-19 20:31 32.731218 -117.176625 185 21ft 0kts
04-May-19 20:32 32.731218 -117.176625 185 21ft 0kts
04-May-19 20:33 32.731753 -117.182326 287 21ft 98kts
04-May-19 20:34 32.743281 -117.229217 290 923ft 179kts
04-May-19 20:35 32.761252 -117.290151 289 1918ft 197kts
04-May-19 20:36 32.751172 -117.330147 176 4172ft 175kts
04-May-19 20:37 32.713264 -117.291465 136 5719ft 183kts
04-May-19 20:38 32.677560 -117.247959 136 7218ft 187kts
04-May-19 20:39 32.640721 -117.203097 136 8921ft 191kts
04-May-19 20:40 32.619938 -117.146662 95 10516ft 201kts
04-May-19 20:41 32.616207 -117.079538 96 12062ft 207kts
04-May-19 20:42 32.612178 -117.010300 96 13455ft 213kts
04-May-19 20:43 32.614260 -116.938707 84 14773ft 221kts
04-May-19 20:44 32.621659 -116.865161 84 16144ft 227kts
04-May-19 20:45 32.629167 -116.789346 84 17389ft 235kts
04-May-19 20:46 32.636832 -116.711498 84 18641ft 241kts
04-May-19 20:47 32.644661 -116.631617 84 19769ft 247kts
04-May-19 20:48 32.652617 -116.549568 84 20753ft 252kts
04-May-19 20:49 32.660936 -116.462565 84 20990ft 279kts
04-May-19 20:50 32.669991 -116.367683 84 20987ft 295kts
04-May-19 20:51 32.679234 -116.270153 85 20980ft 300kts
04-May-19 20:52 32.688522 -116.171407 85 20981ft 301kts
04-May-19 20:53 32.697792 -116.071946 85 20919ft 303kts
04-May-19 20:54 32.706924 -115.973971 84 20211ft 282kts
04-May-19 20:55 32.715063 -115.886168 84 18987ft 256kts
04-May-19 20:56 32.722493 -115.804533 84 17780ft 242kts
04-May-19 20:57 32.729600 -115.725856 84 16579ft 235kts
04-May-19 20:58 32.736232 -115.651939 84 15293ft 213kts
04-May-19 20:59 32.742303 -115.584049 84 13696ft 202kts
04-May-19 21:00 32.748052 -115.519130 84 12099ft 194kts
04-May-19 21:01 32.754327 -115.456114 82 10516ft 194kts
04-May-19 21:02 32.761126 -115.391710 82 8934ft 198kts
04-May-19 21:03 32.767948 -115.325973 83 7340ft 201kts
04-May-19 21:04 32.774711 -115.260130 83 5739ft 202kts
04-May-19 21:05 32.782025 -115.189737 83 4997ft 206kts
04-May-19 21:06 32.789103 -115.118668 84 5006ft 232kts
04-May-19 21:07 32.796926 -115.040610 83 5006ft 242kts
04-May-19 21:08 32.804923 -114.960668 83 5009ft 244kts
04-May-19 21:09 32.812909 -114.880473 83 5009ft 244kts
04-May-19 21:10 32.820841 -114.800307 83 5010ft 244kts
04-May-19 21:11 32.828739 -114.719950 83 5010ft 244kts
04-May-19 21:12 32.836621 -114.639464 83 5010ft 244kts
04-May-19 21:13 32.844360 -114.559562 84 4997ft 225kts
04-May-19 21:14 32.848468 -114.497123 93 4439ft 181kts
04-May-19 21:15 32.841719 -114.441561 102 2838ft 147kts
04-May-19 21:16 32.842846 -114.400932 31 972ft 112kts
04-May-19 21:17 32.864876 -114.395828 280 425ft 11kts
04-May-19 21:18 32.864966 -114.396291 290 425ft 5kts
04-May-19 21:19 32.866293 -114.396829 4 425ft 0kts
04-May-19 21:20 32.866293 -114.396829 4 425ft 0kts
04-May-19 21:21 32.866293 -114.396829 4 425ft 0kts
04-May-19 21:22 32.866293 -114.396829 4 425ft 0kts
04-May-19 21:23 32.866293 -114.396829 4 425ft 0kts
04-May-19 21:24 32.866293 -114.396829 4 425ft 0kts
04-May-19 21:25 32.866293 -114.396829 4 425ft 0kts
04-May-19 21:27 32.866293 -114.396829 4 425ft 0kts
04-May-19 21:28 32.866293 -114.396829 4 425ft 0kts
04-May-19 21:29 32.866293 -114.396829 4 425ft 0kts
04-May-19 21:30 32.866293 -114.396829 4 425ft 0kts
04-May-19 21:31 32.866293 -114.396829 4 425ft 0kts
04-May-19 21:32 32.866293 -114.396829 4 425ft 0kts

Navigation Log

Ident Type
Flight plan parsing failed, navigation log unavailable